Totem Lake, Washington
Current Conditions -  °F | °C
As of 9:53 AM on Thursday 23 Oct 2014 (Local Time) from KBFI Reporting Station
Light Rain Light Rain  
Wind Chill: 54°   Ceiling: 5000
Heat Index: 54°   Visibility: 10mi
Dew Point: 48°   Wind: 6mph
Humidity: 80%   Direction: 120°ESE
Pressure: 29.77"   Gusts: NA
Location:  47.7179°N, 122.204°W
Report Text: KBFI 231653Z 12005KT 10SM -RA FEW033 BKN050 OVC055 12/09 A2977 RMK AO2 SLP082 P0003 T01220089
Loading
Personal Weather Stations






























Interactive Weather Map
Tropical Storm Tracking
New forecast layout! Learn more

10-Day Weather Forecast

Advertisements
Track Severe Weather on mobile